createdAt,value
2023-03-22T00:06:31.356Z,8.56
2023-03-22T00:26:31.341Z,8.56
2023-03-22T00:46:31.329Z,8.62
2023-03-22T01:06:31.361Z,8.62
2023-03-22T01:26:31.347Z,8.62
2023-03-22T01:46:31.266Z,8.62
2023-03-22T02:06:31.251Z,8.68
2023-03-22T02:26:31.352Z,8.68
2023-03-22T02:46:31.221Z,8.68
2023-03-22T03:06:31.197Z,8.68
2023-03-22T03:26:31.185Z,8.43
2023-03-22T03:46:31.264Z,8.62
2023-03-22T04:06:31.148Z,8.62
2023-03-22T04:26:31.161Z,8.37
2023-03-22T04:46:31.177Z,8.68
2023-03-22T05:06:31.100Z,8.43
2023-03-22T05:26:31.097Z,8.25
2023-03-22T05:46:31.103Z,8.50
2023-03-22T06:06:31.107Z,8.18
2023-03-22T06:26:31.058Z,8.31
2023-03-22T06:46:31.019Z,8.43
2023-03-22T07:06:30.999Z,8.43
2023-03-22T07:26:31.034Z,8.31
2023-03-22T07:46:31.009Z,8.31
2023-03-22T08:06:31.061Z,8.68
2023-03-22T08:26:31.016Z,8.62
2023-03-22T08:46:31.001Z,8.62
2023-03-22T09:06:30.942Z,8.37
2023-03-22T09:46:31.007Z,8.43
2023-03-22T10:06:30.838Z,8.37
2023-03-22T10:26:30.982Z,8.62
2023-03-22T10:46:30.778Z,8.56
2023-03-22T11:06:30.825Z,8.62
2023-03-22T11:26:30.804Z,8.87
2023-03-22T11:46:30.795Z,8.81
2023-03-22T12:06:30.783Z,8.87
2023-03-22T12:26:30.586Z,8.87
2023-03-22T12:46:30.576Z,8.93
2023-03-22T13:06:30.550Z,9.00
2023-03-22T13:26:30.506Z,9.00
2023-03-22T13:46:30.486Z,8.87
2023-03-22T14:06:30.464Z,9.06
2023-03-22T15:06:30.506Z,9.18
2023-03-22T15:26:30.514Z,9.25
2023-03-22T15:46:30.500Z,9.18
2023-03-22T16:06:30.292Z,9.31
2023-03-22T16:26:30.265Z,9.18
2023-03-22T16:46:30.362Z,8.93
2023-03-22T17:06:30.388Z,9.06
2023-03-22T17:26:30.175Z,9.06
2023-03-22T17:46:30.171Z,9.18
2023-03-22T18:06:30.125Z,9.18
2023-03-22T18:26:30.297Z,9.25
2023-03-22T18:46:30.085Z,9.12
2023-03-22T19:06:30.241Z,9.31
2023-03-22T19:26:30.213Z,9.12
2023-03-22T20:06:30.206Z,9.12
2023-03-22T20:26:30.117Z,9.12
2023-03-22T20:46:30.111Z,8.93
2023-03-22T21:06:29.936Z,9.06
2023-03-22T21:26:30.102Z,8.93
2023-03-22T21:46:30.090Z,8.87
2023-03-22T22:06:29.889Z,8.87
2023-03-22T22:26:30.090Z,8.75
2023-03-22T22:46:29.839Z,8.87
2023-03-22T23:06:29.965Z,8.81
2023-03-22T23:26:29.867Z,8.81
2023-03-22T23:46:29.790Z,8.81
